Time;durP1;ratioP1;P1;durP2;ratioP2;P2;SDS_P1;SDS_P2;PMS_P1;PMS_P2;Temp;Humidity;BMP_temperature;BMP_pressure;BME280_temperature;BME280_humidity;BME280_pressure;Samples;Min_cycle;Max_cycle;Signal;HPM_P1;HPM_P2
2023/04/30 00:01:53;;;;;;;16.23;8.75;;;;;;;9.72;100.00;97183.88;5093525;28;20023;-76
2023/04/30 00:04:19;;;;;;;17.58;8.45;;;;;;;9.62;100.00;97185.44;5093014;28;20024;-76
2023/04/30 00:06:44;;;;;;;15.73;8.98;;;;;;;9.60;100.00;97189.13;5110149;28;20055;-77
2023/04/30 00:09:10;;;;;;;15.88;8.93;;;;;;;9.59;100.00;97190.97;5109666;28;20423;-77
2023/04/30 00:11:36;;;;;;;14.05;8.02;;;;;;;9.60;100.00;97194.47;5093009;28;20066;-77
2023/04/30 00:14:01;;;;;;;16.73;8.23;;;;;;;9.56;100.00;97184.97;5092907;28;20027;-77
2023/04/30 00:16:27;;;;;;;16.67;8.02;;;;;;;9.52;100.00;97184.28;5092986;28;20026;-77
2023/04/30 00:18:52;;;;;;;14.82;7.72;;;;;;;9.50;100.00;97180.88;5093148;28;20027;-77
2023/04/30 00:21:18;;;;;;;20.08;7.65;;;;;;;9.49;100.00;97180.97;5092728;28;20027;-77
2023/04/30 00:23:44;;;;;;;11.75;6.97;;;;;;;9.42;100.00;97177.81;5110056;28;20031;-77
2023/04/30 00:26:09;;;;;;;13.80;7.22;;;;;;;9.42;100.00;97187.63;5109727;28;20114;-77
2023/04/30 00:28:35;;;;;;;11.93;6.68;;;;;;;9.31;100.00;97184.78;5110152;28;20067;-77
2023/04/30 00:31:00;;;;;;;12.02;6.97;;;;;;;9.32;100.00;97197.19;5096937;28;20027;-78
2023/04/30 00:33:26;;;;;;;17.85;9.65;;;;;;;9.20;100.00;97188.13;5096614;28;20016;-78
2023/04/30 00:35:51;;;;;;;18.45;8.75;;;;;;;9.17;100.00;97197.19;5113706;28;20406;-76
2023/04/30 00:38:16;;;;;;;15.25;8.38;;;;;;;9.10;100.00;97203.00;5096470;28;20028;-77
2023/04/30 00:40:42;;;;;;;14.07;8.00;;;;;;;9.08;100.00;97203.06;5096789;28;20490;-78
2023/04/30 00:43:08;;;;;;;13.95;8.32;;;;;;;8.98;100.00;97206.41;5096678;28;20111;-78
2023/04/30 00:45:33;;;;;;;19.65;8.18;;;;;;;8.98;100.00;97209.91;5096439;28;20026;-76
2023/04/30 00:47:59;;;;;;;17.38;8.93;;;;;;;8.94;100.00;97202.22;5113513;28;20081;-77
2023/04/30 00:50:24;;;;;;;18.48;8.52;;;;;;;8.88;100.00;97200.78;5095869;28;20050;-77
2023/04/30 00:52:50;;;;;;;16.02;8.07;;;;;;;8.84;100.00;97196.56;5113977;28;20479;-77
2023/04/30 00:55:16;;;;;;;17.25;8.00;;;;;;;8.82;100.00;97202.97;5113235;28;20036;-77
2023/04/30 00:57:42;;;;;;;13.10;8.50;;;;;;;8.71;100.00;97204.47;5096489;28;20059;-77
2023/04/30 01:00:10;;;;;;;17.60;8.07;;;;;;;8.73;100.00;97207.03;5096123;28;20083;-76
2023/04/30 01:02:37;;;;;;;17.20;8.48;;;;;;;8.72;100.00;97213.31;5096508;28;20034;-78
2023/04/30 01:05:03;;;;;;;15.23;8.43;;;;;;;8.58;100.00;97200.81;5113258;28;20435;-74
2023/04/30 01:07:30;;;;;;;17.13;8.70;;;;;;;8.41;100.00;97208.94;5113835;28;20103;-83
2023/04/30 01:09:55;;;;;;;13.60;8.40;;;;;;;8.36;100.00;97204.84;5096317;28;20493;-84
2023/04/30 01:12:46;;;;;;;14.82;8.32;;;;;;;8.41;100.00;97222.28;5096606;28;20032;-84
2023/04/30 01:15:32;;;;;;;14.60;7.78;;;;;;;8.38;100.00;97217.13;5113595;28;20080;-84
2023/04/30 01:18:19;;;;;;;12.40;7.18;;;;;;;8.38;100.00;97218.94;5113651;28;20027;-86
2023/04/30 01:20:53;;;;;;;20.00;7.70;;;;;;;8.25;100.00;97201.91;5115187;28;20078;-84
2023/04/30 01:24:01;;;;;;;16.45;8.18;;;;;;;8.36;100.00;97202.19;5113874;28;20023;-85
2023/04/30 01:29:55;;;;;;;18.70;8.55;;;;;;;8.19;100.00;97193.31;5073649;28;20043;-84
2023/04/30 01:33:03;;;;;;;15.02;8.52;;;;;;;8.38;100.00;97216.25;5072776;28;20024;-86
2023/04/30 01:36:18;;;;;;;;;;;;;;;;;;;;;
2023/04/30 01:39:32;;;;;;;13.70;8.50;;;;;;;8.45;100.00;97228.28;5082555;28;20398;-86
2023/04/30 01:42:13;;;;;;;24.00;10.25;;;;;;;8.25;100.00;97193.91;5081895;28;20032;-87
2023/04/30 01:45:21;;;;;;;18.17;9.30;;;;;;;8.19;100.00;97189.78;5064556;28;20020;-86
2023/04/30 01:48:08;;;;;;;17.85;9.20;;;;;;;8.47;100.00;97229.03;5073983;28;20094;-85
2023/04/30 01:50:48;;;;;;;17.85;9.65;;;;;;;8.28;100.00;97221.25;5074333;28;20403;-84
2023/04/30 01:53:41;;;;;;;15.70;8.65;;;;;;;8.26;100.00;97224.94;5061041;28;20095;-86
2023/04/30 01:56:10;;;;;;;15.10;8.77;;;;;;;8.27;100.00;97221.34;5077018;28;20075;-85
2023/04/30 01:58:37;;;;;;;16.20;8.75;;;;;;;8.21;100.00;97222.56;5055849;28;20056;-84
2023/04/30 02:01:35;;;;;;;13.85;8.35;;;;;;;7.79;100.00;97169.06;5073604;28;20472;-83
2023/04/30 02:04:03;;;;;;;16.77;8.18;;;;;;;7.70;100.00;97175.78;5070546;28;20035;-85
2023/04/30 02:06:58;;;;;;;14.95;8.07;;;;;;;7.41;100.00;97150.78;5060997;28;20063;-86
2023/04/30 02:09:32;;;;;;;12.75;7.60;;;;;;;7.44;100.00;97174.59;5064338;28;20043;-87
2023/04/30 02:11:58;;;;;;;19.58;8.10;;;;;;;7.58;100.00;97198.63;5073741;28;20075;-84
2023/04/30 02:14:24;;;;;;;14.50;7.60;;;;;;;7.53;100.00;97197.16;5072059;28;20032;-84
2023/04/30 02:16:49;;;;;;;13.15;7.90;;;;;;;7.63;100.00;97216.97;5072017;28;20025;-84
2023/04/30 02:19:41;;;;;;;12.75;7.97;;;;;;;7.48;100.00;97201.88;5055567;28;20028;-85
2023/04/30 02:22:59;;;;;;;13.90;7.60;;;;;;;7.70;100.00;97226.34;5072746;28;20036;-85
2023/04/30 02:25:25;;;;;;;15.10;7.25;;;;;;;7.44;100.00;97181.72;5055828;28;20519;-85
2023/04/30 02:27:52;;;;;;;20.38;7.93;;;;;;;7.51;100.00;97199.91;5055713;28;20049;-86
2023/04/30 02:30:51;;;;;;;14.18;7.95;;;;;;;7.68;100.00;97217.59;5065705;28;20102;-86
2023/04/30 02:33:51;;;;;;;16.67;8.15;;;;;;;7.66;100.00;97219.47;5037359;28;20102;-88
2023/04/30 02:39:26;;;;;;;22.45;10.27;;;;;;;7.62;100.00;97220.59;5053070;28;20047;-85
2023/04/30 02:41:51;;;;;;;15.93;9.07;;;;;;;7.48;100.00;97201.88;5086103;28;20487;-84
2023/04/30 02:44:17;;;;;;;17.92;9.25;;;;;;;7.60;100.00;97233.13;5074840;28;20039;-84
2023/04/30 02:46:42;;;;;;;17.83;9.50;;;;;;;7.58;100.00;97229.69;5092166;28;20081;-85
2023/04/30 02:49:08;;;;;;;17.20;8.88;;;;;;;7.58;100.00;97237.69;5091241;28;20032;-85
2023/04/30 02:51:33;;;;;;;19.40;10.50;;;;;;;7.64;100.00;97237.34;5074593;28;20035;-77
2023/04/30 02:53:59;;;;;;;17.58;9.50;;;;;;;7.58;100.00;97238.53;5074864;28;20453;-83
2023/04/30 02:56:25;;;;;;;16.80;9.93;;;;;;;7.52;100.00;97238.88;5091614;28;21387;-85
2023/04/30 02:58:50;;;;;;;18.15;9.55;;;;;;;7.51;100.00;97236.28;5074580;28;20024;-85
2023/04/30 03:01:16;;;;;;;18.35;9.82;;;;;;;7.42;100.00;97232.34;5074590;28;20028;-85
2023/04/30 03:03:41;;;;;;;20.13;9.85;;;;;;;7.31;100.00;97242.72;5074630;28;20411;-84
2023/04/30 03:06:07;;;;;;;16.98;9.27;;;;;;;7.29;100.00;97249.06;5091262;28;20105;-83
2023/04/30 03:08:32;;;;;;;16.95;9.30;;;;;;;7.20;100.00;97254.88;5091262;28;20038;-84
2023/04/30 03:10:58;;;;;;;16.83;9.50;;;;;;;7.23;100.00;97262.69;5074441;28;20486;-84
2023/04/30 03:13:25;;;;;;;17.55;9.60;;;;;;;7.19;100.00;97262.00;5090631;28;20024;-84
2023/04/30 03:15:57;;;;;;;19.67;9.40;;;;;;;7.20;100.00;97257.53;5074342;28;20035;-85
2023/04/30 03:18:22;;;;;;;21.88;9.93;;;;;;;7.09;100.00;97261.63;5073798;28;20066;-84
2023/04/30 03:20:48;;;;;;;16.17;9.07;;;;;;;7.15;100.00;97254.25;5091034;28;20061;-83
2023/04/30 03:23:16;;;;;;;25.55;10.18;;;;;;;7.17;100.00;97258.53;5073473;28;20031;-86
2023/04/30 03:25:41;;;;;;;21.55;9.80;;;;;;;7.10;100.00;97249.19;5073499;28;20494;-83
2023/04/30 03:28:07;;;;;;;20.02;10.02;;;;;;;7.01;100.00;97234.53;5094881;28;20043;-84
2023/04/30 03:30:32;;;;;;;15.05;8.80;;;;;;;6.98;100.00;97241.84;5110762;28;20035;-83
2023/04/30 03:32:59;;;;;;;15.07;8.00;;;;;;;7.03;100.00;97261.94;5090491;28;20071;-85
2023/04/30 03:35:25;;;;;;;16.23;7.85;;;;;;;7.04;100.00;97260.97;5111791;28;20510;-84
2023/04/30 03:37:50;;;;;;;17.27;9.23;;;;;;;7.03;100.00;97248.63;5112922;28;20023;-84
2023/04/30 03:40:16;;;;;;;26.45;12.80;;;;;;;7.03;100.00;97253.09;5093341;28;20049;-82
2023/04/30 03:42:42;;;;;;;59.58;23.88;;;;;;;7.01;100.00;97258.47;5093828;28;20023;-83
2023/04/30 03:45:07;;;;;;;73.57;27.35;;;;;;;7.09;100.00;97260.75;5093545;28;20102;-84
2023/04/30 03:47:34;;;;;;;82.65;30.98;;;;;;;7.19;100.00;97266.44;5110746;28;20097;-84
2023/04/30 03:50:00;;;;;;;25.40;12.13;;;;;;;7.16;100.00;97261.28;5093779;28;20478;-84
2023/04/30 03:52:26;;;;;;;22.05;10.25;;;;;;;7.25;100.00;97271.44;5093989;28;20030;-84
2023/04/30 03:54:51;;;;;;;18.20;9.52;;;;;;;7.42;100.00;97274.03;5093079;28;20026;-84
2023/04/30 03:57:17;;;;;;;26.95;8.77;;;;;;;7.52;100.00;97275.28;5093357;28;20096;-83
2023/04/30 03:59:42;;;;;;;19.25;10.25;;;;;;;7.66;100.00;97279.84;5110750;28;20024;-84
2023/04/30 04:02:08;;;;;;;20.77;10.48;;;;;;;7.79;100.00;97281.75;5110963;28;20035;-84
2023/04/30 04:04:34;;;;;;;21.00;11.10;;;;;;;8.11;100.00;97288.81;5112363;28;20020;-84
2023/04/30 04:07:01;;;;;;;17.13;9.27;;;;;;;8.74;100.00;97288.72;5097562;28;20046;-85
2023/04/30 04:09:27;;;;;;;17.52;9.52;;;;;;;9.73;100.00;97273.72;5097780;28;20034;-85
2023/04/30 04:11:52;;;;;;;16.98;9.10;;;;;;;10.78;100.00;97232.94;5114589;28;20471;-85
2023/04/30 04:14:18;;;;;;;23.75;9.93;;;;;;;11.00;100.00;97194.88;5114497;28;20030;-85
2023/04/30 04:16:43;;;;;;;20.10;9.85;;;;;;;10.87;100.00;97185.97;5097504;28;20033;-84
2023/04/30 04:19:09;;;;;;;24.38;11.32;;;;;;;10.72;100.00;97189.69;5115251;28;20414;-85
2023/04/30 04:21:35;;;;;;;21.88;11.68;;;;;;;11.21;100.00;97193.38;5097564;28;20091;-85
2023/04/30 04:24:07;;;;;;;22.40;10.57;;;;;;;12.01;100.00;97180.50;5097248;28;20034;-86
2023/04/30 04:26:33;;;;;;;19.95;9.30;;;;;;;11.78;100.00;97156.22;5114528;28;20501;-82
2023/04/30 04:28:59;;;;;;;17.00;8.38;;;;;;;11.24;100.00;97166.38;5114136;28;20054;-84
2023/04/30 04:31:25;;;;;;;13.77;8.20;;;;;;;11.05;100.00;97173.13;5114495;28;20490;-83
2023/04/30 04:33:57;;;;;;;16.65;8.98;;;;;;;10.89;100.00;97170.66;5097174;28;20027;-85
2023/04/30 04:36:23;;;;;;;14.60;9.10;;;;;;;10.82;100.00;97185.44;5114449;28;20026;-85
2023/04/30 04:38:48;;;;;;;14.70;9.30;;;;;;;10.66;100.00;97179.44;5097382;28;20059;-85
2023/04/30 04:41:14;;;;;;;18.23;9.75;;;;;;;10.41;100.00;97192.72;5097565;28;20097;-85
2023/04/30 04:43:39;;;;;;;19.45;10.48;;;;;;;10.06;100.00;97179.03;5115470;28;20501;-85
2023/04/30 04:46:08;;;;;;;19.15;10.13;;;;;;;9.99;100.00;97188.38;5097172;28;20023;-85
2023/04/30 04:48:33;;;;;;;19.02;11.00;;;;;;;9.79;100.00;97195.00;5097743;28;20031;-85
2023/04/30 04:50:59;;;;;;;18.38;11.52;;;;;;;9.76;100.00;97208.56;5096738;28;20028;-85
2023/04/30 04:53:25;;;;;;;17.70;10.63;;;;;;;9.84;100.00;97211.63;5097407;28;20460;-86
2023/04/30 04:55:51;;;;;;;23.15;11.20;;;;;;;9.84;100.00;97208.09;5115114;28;20036;-86
2023/04/30 04:58:16;;;;;;;22.02;10.90;;;;;;;9.86;100.00;97216.84;5113991;28;20035;-86
2023/04/30 05:00:43;;;;;;;18.35;10.00;;;;;;;9.79;100.00;97225.25;5096845;28;20034;-86
2023/04/30 05:03:09;;;;;;;21.10;10.15;;;;;;;9.97;100.00;97231.22;5113544;28;21462;-87
2023/04/30 05:05:34;;;;;;;17.17;9.80;;;;;;;10.08;100.00;97228.72;5114127;28;20023;-86
2023/04/30 05:08:00;;;;;;;24.23;12.02;;;;;;;10.17;100.00;97225.50;5113694;28;20085;-86
2023/04/30 05:10:25;;;;;;;21.05;10.95;;;;;;;10.40;100.00;97218.59;5088173;28;20112;-85
2023/04/30 05:12:51;;;;;;;18.83;10.30;;;;;;;10.83;100.00;97209.41;5114655;28;20027;-86
2023/04/30 05:15:16;;;;;;;22.55;11.20;;;;;;;11.14;100.00;97200.13;5094525;28;20114;-85
2023/04/30 05:17:42;;;;;;;21.75;10.93;;;;;;;11.54;100.00;97195.47;5113571;28;20023;-86
2023/04/30 05:20:08;;;;;;;16.88;10.38;;;;;;;11.69;100.00;97199.72;5096721;28;20114;-85
2023/04/30 05:22:34;;;;;;;24.83;12.77;;;;;;;12.51;100.00;97196.38;5096432;28;20498;-85
2023/04/30 05:24:59;;;;;;;12.85;8.88;;;;;;;12.97;100.00;97182.97;5113282;28;20036;-84
2023/04/30 05:27:25;;;;;;;16.83;9.50;;;;;;;13.94;100.00;97172.53;5095708;28;20456;-85
2023/04/30 05:29:51;;;;;;;15.88;8.98;;;;;;;15.25;100.00;97173.97;5094802;28;20047;-85
2023/04/30 05:32:16;;;;;;;17.70;8.35;;;;;;;15.84;100.00;97147.19;5112584;28;20087;-85
2023/04/30 05:34:42;;;;;;;22.55;12.90;;;;;;;15.22;100.00;97133.84;5095730;28;20036;-84
2023/04/30 05:37:07;;;;;;;15.82;9.48;;;;;;;14.36;100.00;97136.75;5095495;28;20031;-84
2023/04/30 05:39:33;;;;;;;16.80;9.23;;;;;;;14.00;100.00;97155.88;5112722;28;20096;-87
2023/04/30 05:41:58;;;;;;;16.20;9.90;;;;;;;14.25;100.00;97155.59;5114412;28;20059;-85
2023/04/30 05:44:24;;;;;;;25.45;12.50;;;;;;;14.16;100.00;97164.41;5114059;28;20022;-85
2023/04/30 05:46:50;;;;;;;17.90;10.57;;;;;;;14.14;100.00;97152.94;5113334;28;20106;-85
2023/04/30 05:49:15;;;;;;;15.10;10.07;;;;;;;14.42;100.00;97151.53;5113255;28;20028;-85
2023/04/30 05:51:41;;;;;;;16.00;10.02;;;;;;;14.31;100.00;97138.94;5095447;28;20410;-85
2023/04/30 05:54:06;;;;;;;18.50;9.90;;;;;;;14.35;100.00;97143.13;5112358;28;20122;-84
2023/04/30 05:56:32;;;;;;;18.20;10.55;;;;;;;14.65;100.00;97147.75;5096057;28;20107;-85
2023/04/30 05:58:57;;;;;;;18.33;10.40;;;;;;;14.54;100.00;97135.22;5112781;28;20023;-86
2023/04/30 06:01:24;;;;;;;25.58;13.35;;;;;;;14.63;100.00;97134.44;5112577;28;20486;-86
2023/04/30 06:03:49;;;;;;;18.00;9.68;;;;;;;14.04;100.00;97120.56;5095355;28;20126;-85
2023/04/30 06:06:15;;;;;;;20.98;10.88;;;;;;;14.26;100.00;97134.91;5094202;28;20067;-83
2023/04/30 06:08:43;;;;;;;16.65;9.68;;;;;;;14.06;100.00;97139.25;5077062;28;20487;-84
2023/04/30 06:11:09;;;;;;;22.92;10.68;;;;;;;14.84;100.00;97136.28;5094449;28;20024;-84
2023/04/30 06:13:35;;;;;;;47.47;20.77;;;;;;;15.28;100.00;97124.34;5110862;28;20024;-85
2023/04/30 06:16:01;;;;;;;14.25;8.07;;;;;;;15.93;100.00;97121.22;5094756;28;20024;-84
2023/04/30 06:18:26;;;;;;;19.27;9.55;;;;;;;16.07;100.00;97118.13;5111445;28;20028;-84
2023/04/30 06:20:52;;;;;;;11.57;7.90;;;;;;;16.10;100.00;97118.69;5112934;28;20467;-85
2023/04/30 06:23:17;;;;;;;14.80;9.38;;;;;;;15.85;100.00;97126.44;5110493;28;20024;-84
2023/04/30 06:25:43;;;;;;;16.90;10.18;;;;;;;16.18;100.00;97124.22;5095579;28;20028;-84
2023/04/30 06:28:08;;;;;;;16.10;10.00;;;;;;;16.10;100.00;97117.84;5094654;28;20430;-83
2023/04/30 06:30:35;;;;;;;20.30;9.23;;;;;;;16.13;100.00;97117.56;5094877;28;20031;-83
2023/04/30 06:33:00;;;;;;;17.10;9.88;;;;;;;15.93;100.00;97116.69;5112100;28;20028;-83
2023/04/30 06:35:26;;;;;;;15.13;9.55;;;;;;;15.96;100.00;97120.94;5113201;28;20026;-83
2023/04/30 06:37:51;;;;;;;14.95;10.23;;;;;;;15.39;100.00;97110.78;5095169;28;20039;-82
2023/04/30 06:40:17;;;;;;;16.98;10.13;;;;;;;15.48;100.00;97121.63;5112324;28;20024;-76
2023/04/30 06:42:42;;;;;;;16.55;8.82;;;;;;;15.58;100.00;97119.84;5095169;28;20084;-81
2023/04/30 06:45:09;;;;;;;17.70;8.90;;;;;;;15.64;100.00;97122.00;5096590;28;20042;-85
2023/04/30 06:47:36;;;;;;;14.45;9.45;;;;;;;15.82;100.00;97127.56;5091926;28;20028;-85
2023/04/30 06:50:03;;;;;;;14.50;8.80;;;;;;;16.06;100.00;97124.50;5096180;28;20024;-84
2023/04/30 06:52:29;;;;;;;16.70;9.10;;;;;;;15.90;100.00;97135.00;5095014;28;20044;-79
2023/04/30 06:54:54;;;;;;;13.55;9.27;;;;;;;15.78;100.00;97134.22;5095652;28;20110;-80
2023/04/30 06:57:20;;;;;;;19.95;9.80;;;;;;;15.92;100.00;97136.56;5094816;28;20497;-82
2023/04/30 06:59:46;;;;;;;14.65;8.65;;;;;;;15.86;100.00;97141.63;5112052;28;20040;-83
2023/04/30 07:02:12;;;;;;;67.30;13.32;;;;;;;16.15;100.00;97138.00;5111886;28;20043;-82
2023/04/30 07:04:40;;;;;;;15.68;9.70;;;;;;;16.09;100.00;97149.34;5094559;28;20066;-82
2023/04/30 07:07:06;;;;;;;23.58;9.38;;;;;;;16.41;100.00;97142.88;5111449;28;20032;-84
2023/04/30 07:09:31;;;;;;;16.15;8.13;;;;;;;16.73;100.00;97149.72;5111186;28;20027;-83
2023/04/30 07:12:00;;;;;;;16.65;8.88;;;;;;;16.94;100.00;97135.22;5094749;28;20031;-84
2023/04/30 07:14:26;;;;;;;13.60;8.57;;;;;;;16.97;99.73;97132.25;5095106;28;20034;-83
2023/04/30 07:16:52;;;;;;;15.13;8.10;;;;;;;17.13;98.35;97140.63;5111394;28;20031;-84
2023/04/30 07:19:17;;;;;;;16.55;10.25;;;;;;;17.38;96.74;97137.25;5094554;28;20406;-83
2023/04/30 07:21:43;;;;;;;25.40;10.88;;;;;;;17.46;94.91;97134.69;5111437;28;21972;-83
2023/04/30 07:24:08;;;;;;;12.85;7.57;;;;;;;17.51;94.15;97126.97;5094127;28;20027;-84
2023/04/30 07:26:35;;;;;;;16.98;8.98;;;;;;;18.00;91.99;97120.34;5093485;28;20040;-84
2023/04/30 07:29:01;;;;;;;14.32;8.63;;;;;;;18.50;87.77;97125.31;5093808;28;20556;-82
2023/04/30 07:31:26;;;;;;;17.80;9.00;;;;;;;19.13;83.32;97110.66;5110633;28;20027;-83
2023/04/30 07:33:54;;;;;;;12.13;8.18;;;;;;;19.23;78.89;97105.94;5094349;28;20402;-85
2023/04/30 07:36:21;;;;;;;14.98;7.82;;;;;;;19.30;79.28;97107.03;5111419;28;20110;-85
2023/04/30 07:38:46;;;;;;;15.73;7.35;;;;;;;20.10;74.95;97110.31;5093362;28;20023;-85
2023/04/30 07:41:12;;;;;;;14.77;8.07;;;;;;;21.29;66.46;97104.38;5110685;28;20131;-86
2023/04/30 07:43:37;;;;;;;9.82;7.28;;;;;;;22.79;58.09;97089.66;5093569;28;20033;-85
2023/04/30 07:46:03;;;;;;;11.93;7.13;;;;;;;23.56;54.71;97099.38;5110559;28;20019;-85
2023/04/30 07:48:29;;;;;;;11.55;7.85;;;;;;;23.86;52.91;97079.22;5094257;28;20038;-86
2023/04/30 07:50:55;;;;;;;17.20;9.13;;;;;;;24.23;51.07;97065.47;5110640;28;20077;-84
2023/04/30 07:53:22;;;;;;;15.43;9.13;;;;;;;24.42;51.55;97072.19;5111217;28;20024;-81
2023/04/30 07:55:47;;;;;;;13.23;6.97;;;;;;;24.39;50.68;97060.81;5110236;28;20074;-83
2023/04/30 07:58:13;;;;;;;9.50;6.70;;;;;;;25.97;47.91;97083.06;5110218;28;20055;-85
2023/04/30 08:00:38;;;;;;;15.10;8.30;;;;;;;26.18;46.79;97068.44;5110360;28;20499;-84
2023/04/30 08:03:04;;;;;;;9.48;6.45;;;;;;;27.37;44.60;97053.91;5110613;28;20066;-84
2023/04/30 08:05:29;;;;;;;9.95;6.50;;;;;;;27.20;44.10;97042.50;5110483;28;20058;-84
2023/04/30 08:07:55;;;;;;;11.05;6.10;;;;;;;26.17;45.08;97040.16;5110455;28;20027;-83
2023/04/30 08:10:20;;;;;;;8.75;5.63;;;;;;;26.23;45.38;97039.34;5112033;28;20031;-83
2023/04/30 08:12:46;;;;;;;9.07;5.93;;;;;;;26.35;44.81;97029.47;5110470;28;20396;-85
2023/04/30 08:15:12;;;;;;;12.18;5.75;;;;;;;26.71;44.05;97037.34;5110135;28;20057;-84
2023/04/30 08:17:37;;;;;;;11.10;6.47;;;;;;;25.96;45.95;97031.19;5110317;28;20084;-84
2023/04/30 08:20:03;;;;;;;9.77;6.07;;;;;;;26.10;46.23;97032.91;5110273;28;20061;-85
2023/04/30 08:22:29;;;;;;;11.70;7.00;;;;;;;26.59;45.35;97043.66;5110193;28;20458;-84
2023/04/30 08:24:55;;;;;;;8.85;6.30;;;;;;;26.08;45.49;97027.66;5110290;28;20059;-85
2023/04/30 08:27:22;;;;;;;10.95;5.90;;;;;;;24.98;46.77;97018.47;5093542;28;20329;-85
2023/04/30 08:29:47;;;;;;;9.77;5.35;;;;;;;24.96;46.04;97011.50;5092677;28;20452;-84
2023/04/30 08:32:13;;;;;;;8.98;5.85;;;;;;;25.27;45.96;97017.44;5110113;28;20169;-84
2023/04/30 08:34:42;;;;;;;9.73;3.90;;;;;;;24.89;41.54;96973.13;5093555;28;20479;-84
2023/04/30 08:37:08;;;;;;;6.57;3.90;;;;;;;24.96;42.69;96989.63;5110077;28;20031;-84
2023/04/30 08:39:33;;;;;;;8.93;3.40;;;;;;;24.59;42.67;96971.59;5110257;28;20030;-84
2023/04/30 08:42:02;;;;;;;7.60;3.10;;;;;;;24.78;41.31;96965.44;5109490;28;20084;-83
2023/04/30 08:44:29;;;;;;;3.90;2.60;;;;;;;25.50;39.91;96987.09;5104932;28;20023;-84
2023/04/30 08:46:57;;;;;;;6.70;2.85;;;;;;;26.06;39.24;96971.31;5093096;28;20554;-84
2023/04/30 08:49:24;;;;;;;5.05;3.08;;;;;;;25.72;39.07;96947.56;5111542;28;21489;-84
2023/04/30 08:51:50;;;;;;;5.78;3.00;;;;;;;25.53;39.08;96942.84;5113891;28;20035;-83
2023/04/30 08:54:17;;;;;;;6.35;3.03;;;;;;;26.06;38.26;96966.69;5113954;28;20028;-84
2023/04/30 08:56:44;;;;;;;5.18;3.05;;;;;;;27.88;36.33;97016.41;5096973;28;20023;-84
2023/04/30 08:59:11;;;;;;;5.85;3.42;;;;;;;28.74;34.26;96950.81;5097510;28;20077;-83
2023/04/30 09:01:37;;;;;;;4.43;3.15;;;;;;;27.43;35.69;96877.25;5114206;28;20175;-83
2023/04/30 09:04:03;;;;;;;3.50;2.58;;;;;;;26.63;37.32;96910.47;5096211;28;20516;-83
2023/04/30 09:06:28;;;;;;;4.90;2.50;;;;;;;27.50;36.02;96944.03;5096812;28;20027;-83
2023/04/30 09:08:54;;;;;;;4.70;2.50;;;;;;;27.02;35.45;96885.78;5113742;28;20083;-84
2023/04/30 09:11:30;;;;;;;4.90;2.58;;;;;;;27.07;36.07;96898.88;5095505;28;20024;-84
2023/04/30 09:13:57;;;;;;;3.63;2.50;;;;;;;27.43;35.99;96908.31;5096109;28;20032;-84
2023/04/30 09:16:24;;;;;;;4.57;2.60;;;;;;;27.59;35.34;96871.28;5113453;28;20020;-83
2023/04/30 09:18:50;;;;;;;6.57;3.20;;;;;;;28.01;35.10;96886.28;5096770;28;20570;-83
2023/04/30 09:21:16;;;;;;;5.22;3.08;;;;;;;28.07;35.48;96923.09;5113792;28;20016;-83
2023/04/30 09:23:59;;;;;;;3.85;2.53;;;;;;;28.65;34.56;96943.91;5113146;28;20019;-82
2023/04/30 09:26:55;;;;;;;5.95;2.67;;;;;;;30.74;32.16;96973.00;5096467;28;20019;-83
2023/04/30 09:29:20;;;;;;;47.38;31.45;;;;;;;30.03;32.79;96885.44;5114363;28;20044;-84
2023/04/30 09:31:46;;;;;;;4.97;3.10;;;;;;;29.39;34.29;96874.16;5096061;28;20027;-83
2023/04/30 09:34:12;;;;;;;4.72;2.97;;;;;;;27.98;34.51;96837.22;5113684;28;22295;-82
2023/04/30 09:36:53;;;;;;;25.88;13.48;;;;;;;27.34;35.98;96868.38;5096361;28;20024;-83
2023/04/30 09:39:19;;;;;;;17.52;3.80;;;;;;;26.83;37.46;96879.25;5113109;28;20455;-82
2023/04/30 09:41:45;;;;;;;5.20;3.00;;;;;;;25.76;38.31;96851.06;5114338;28;20023;-83
2023/04/30 09:44:31;;;;;;;3.88;2.75;;;;;;;25.40;38.67;96863.31;5096416;28;20405;-83
2023/04/30 09:46:57;;;;;;;3.15;2.35;;;;;;;25.81;37.90;96869.59;5096419;28;20107;-82
2023/04/30 09:49:23;;;;;;;5.90;2.50;;;;;;;26.25;36.46;96877.31;5095768;28;20019;-82
2023/04/30 09:51:58;;;;;;;4.55;2.90;;;;;;;25.99;36.87;96850.69;5092864;28;20043;-82
2023/04/30 09:54:30;;;;;;;11.40;3.47;;;;;;;25.06;38.58;96845.91;5110378;28;20027;-83
2023/04/30 09:56:58;;;;;;;7.85;3.00;;;;;;;24.01;40.63;96847.78;5112887;28;20165;-82
2023/04/30 09:59:31;;;;;;;5.03;3.58;;;;;;;23.44;41.91;96855.97;5109784;28;20023;-82
2023/04/30 10:02:02;;;;;;;67.78;42.72;;;;;;;22.74;43.72;96885.66;5112107;28;20395;-82
2023/04/30 10:04:38;;;;;;;4.43;3.60;;;;;;;22.37;44.27;96894.66;5093390;28;20084;-83
2023/04/30 10:07:19;;;;;;;10.20;4.25;;;;;;;21.97;48.43;96922.25;5112487;28;20039;-82
2023/04/30 10:10:09;;;;;;;7.55;4.20;;;;;;;21.75;58.32;96970.16;5090046;28;20059;-82
2023/04/30 10:12:43;;;;;;;9.13;3.90;;;;;;;21.32;61.77;96979.72;5095012;28;20070;-82
2023/04/30 10:15:19;;;;;;;8.23;5.38;;;;;;;20.79;60.07;96982.22;5095780;28;20050;-81
2023/04/30 10:17:49;;;;;;;9.40;4.40;;;;;;;20.53;65.70;96982.41;5095267;28;20479;-83
2023/04/30 10:20:16;;;;;;;7.97;4.55;;;;;;;20.43;82.93;97025.19;5094976;28;20046;-82
2023/04/30 10:22:43;;;;;;;7.07;3.75;;;;;;;20.71;74.37;97023.00;5095370;28;20023;-82
2023/04/30 10:25:12;;;;;;;8.60;3.88;;;;;;;21.18;63.12;96994.06;5095555;28;20168;-81
2023/04/30 10:27:38;;;;;;;6.53;3.85;;;;;;;21.90;59.99;97001.09;5095567;28;20026;-82
2023/04/30 10:30:06;;;;;;;6.82;3.70;;;;;;;22.72;60.80;97009.59;5094923;28;20050;-82
2023/04/30 10:32:58;;;;;;;6.78;4.10;;;;;;;22.90;51.18;96978.22;5095367;28;20399;-82
2023/04/30 10:35:37;;;;;;;39.22;20.40;;;;;;;24.10;48.74;96998.81;5105174;28;20050;-82
2023/04/30 10:38:15;;;;;;;6.78;3.60;;;;;;;25.16;42.74;96979.69;5095404;28;20019;-82
2023/04/30 10:40:44;;;;;;;4.20;3.30;;;;;;;26.67;40.78;96986.69;5095152;28;20019;-82
2023/04/30 10:43:10;;;;;;;6.93;5.55;;;;;;;28.76;37.98;97005.69;5112069;28;20031;-82
2023/04/30 10:45:37;;;;;;;3.90;2.80;;;;;;;30.47;35.02;97015.88;5112260;28;20390;-83
2023/04/30 10:48:04;;;;;;;2.80;2.50;;;;;;;30.34;34.66;96985.66;5111561;28;20487;-83
2023/04/30 10:50:30;;;;;;;6.20;2.63;;;;;;;31.05;34.24;96994.84;5111585;28;20019;-83
2023/04/30 10:53:03;;;;;;;4.47;2.95;;;;;;;31.03;34.32;96993.41;5112314;28;20355;-83
2023/04/30 10:55:30;;;;;;;5.20;3.03;;;;;;;29.13;43.06;96996.50;5095651;28;20046;-82
2023/04/30 10:57:57;;;;;;;3.70;2.50;;;;;;;27.15;45.25;96973.63;5090404;28;20092;-81
2023/04/30 11:00:27;;;;;;;3.47;2.47;;;;;;;25.88;47.00;96969.13;5094770;28;20092;-83
2023/04/30 11:02:58;;;;;;;5.07;2.72;;;;;;;24.62;51.46;96976.66;5095040;28;20034;-81
2023/04/30 11:05:37;;;;;;;5.80;2.55;;;;;;;26.08;51.04;96996.66;5111354;28;20035;-82
2023/04/30 11:08:03;;;;;;;2.50;2.00;;;;;;;27.87;42.51;96986.41;5094790;28;20027;-83
2023/04/30 11:10:32;;;;;;;2.22;1.77;;;;;;;28.84;36.00;96964.94;5094863;28;20042;-82
2023/04/30 11:13:03;;;;;;;2.83;2.08;;;;;;;29.93;34.19;96945.03;5093724;28;20115;-83
2023/04/30 11:15:40;;;;;;;3.92;2.42;;;;;;;28.15;37.47;96940.16;5094563;28;20118;-83
2023/04/30 11:18:07;;;;;;;3.55;2.30;;;;;;;28.92;35.83;96955.53;5094155;28;20028;-84
2023/04/30 11:20:32;;;;;;;4.15;2.33;;;;;;;28.68;35.58;96932.44;5094315;28;20030;-83
2023/04/30 11:23:08;;;;;;;2.10;1.90;;;;;;;27.49;35.52;96897.50;5111592;28;20028;-82
2023/04/30 11:25:44;;;;;;;4.20;2.03;;;;;;;26.25;37.61;96889.13;5113205;28;20027;-84
2023/04/30 11:28:16;;;;;;;3.53;2.72;;;;;;;25.37;41.13;96913.03;5111635;28;20085;-84
2023/04/30 11:30:53;;;;;;;4.50;2.65;;;;;;;24.18;44.12;96923.03;5111609;28;20096;-83
2023/04/30 11:33:19;;;;;;;2.25;2.05;;;;;;;23.66;46.81;96927.88;5094622;28;20023;-83
2023/04/30 11:35:44;;;;;;;3.15;2.30;;;;;;;23.17;46.48;96920.28;5094225;28;20031;-83
2023/04/30 11:38:15;;;;;;;2.53;1.90;;;;;;;22.03;46.49;96895.13;5093789;28;20019;-84
2023/04/30 11:40:41;;;;;;;5.55;2.33;;;;;;;21.54;47.93;96919.06;5111064;28;20611;-82